sensor_id;sensor_type;location;lat;lon;timestamp;P1;durP1;ratioP1;P2;durP2;ratioP2
63110;SDS011;49201;53.426;10.300;2022-09-24T00:01:06;8.60;;;6.30;;
63110;SDS011;49201;53.426;10.300;2022-09-24T00:03:40;9.23;;;7.20;;
63110;SDS011;49201;53.426;10.300;2022-09-24T00:06:09;8.67;;;7.60;;
63110;SDS011;49201;53.426;10.300;2022-09-24T00:08:38;10.97;;;7.20;;
63110;SDS011;49201;53.426;10.300;2022-09-24T00:11:05;8.50;;;7.53;;
63110;SDS011;49201;53.426;10.300;2022-09-24T00:13:33;11.37;;;7.17;;
63110;SDS011;49201;53.426;10.300;2022-09-24T00:16:03;12.93;;;7.53;;
63110;SDS011;49201;53.426;10.300;2022-09-24T00:18:32;7.53;;;6.83;;
63110;SDS011;49201;53.426;10.300;2022-09-24T00:20:58;7.73;;;6.97;;
63110;SDS011;49201;53.426;10.300;2022-09-24T00:23:24;7.93;;;7.13;;
63110;SDS011;49201;53.426;10.300;2022-09-24T00:25:49;7.30;;;6.63;;
63110;SDS011;49201;53.426;10.300;2022-09-24T00:28:34;7.43;;;6.70;;
63110;SDS011;49201;53.426;10.300;2022-09-24T00:31:03;8.30;;;6.77;;
63110;SDS011;49201;53.426;10.300;2022-09-24T00:33:31;7.00;;;6.30;;
63110;SDS011;49201;53.426;10.300;2022-09-24T00:35:59;11.37;;;6.70;;
63110;SDS011;49201;53.426;10.300;2022-09-24T00:38:29;6.77;;;6.17;;
63110;SDS011;49201;53.426;10.300;2022-09-24T00:40:58;6.67;;;5.97;;
63110;SDS011;49201;53.426;10.300;2022-09-24T00:43:28;7.70;;;6.50;;
63110;SDS011;49201;53.426;10.300;2022-09-24T00:46:41;8.37;;;6.50;;
63110;SDS011;49201;53.426;10.300;2022-09-24T00:49:10;7.97;;;6.40;;
63110;SDS011;49201;53.426;10.300;2022-09-24T00:51:37;6.77;;;6.07;;
63110;SDS011;49201;53.426;10.300;2022-09-24T00:54:08;7.43;;;6.73;;
63110;SDS011;49201;53.426;10.300;2022-09-24T00:56:38;7.63;;;6.47;;
63110;SDS011;49201;53.426;10.300;2022-09-24T00:59:07;7.97;;;6.97;;
63110;SDS011;49201;53.426;10.300;2022-09-24T01:01:35;8.07;;;7.00;;
63110;SDS011;49201;53.426;10.300;2022-09-24T01:04:01;9.93;;;6.63;;
63110;SDS011;49201;53.426;10.300;2022-09-24T01:06:28;7.17;;;6.47;;
63110;SDS011;49201;53.426;10.300;2022-09-24T01:08:54;8.20;;;7.33;;
63110;SDS011;49201;53.426;10.300;2022-09-24T01:16:45;9.57;;;7.37;;
63110;SDS011;49201;53.426;10.300;2022-09-24T01:24:58;8.27;;;7.27;;
63110;SDS011;49201;53.426;10.300;2022-09-24T01:30:05;8.93;;;7.93;;
63110;SDS011;49201;53.426;10.300;2022-09-24T01:37:38;9.03;;;7.73;;
63110;SDS011;49201;53.426;10.300;2022-09-24T01:40:05;9.30;;;7.97;;
63110;SDS011;49201;53.426;10.300;2022-09-24T01:42:33;9.97;;;9.07;;
63110;SDS011;49201;53.426;10.300;2022-09-24T01:45:00;8.87;;;8.07;;
63110;SDS011;49201;53.426;10.300;2022-09-24T01:47:34;10.70;;;9.07;;
63110;SDS011;49201;53.426;10.300;2022-09-24T01:50:05;9.30;;;8.40;;
63110;SDS011;49201;53.426;10.300;2022-09-24T01:55:17;9.53;;;8.53;;
63110;SDS011;49201;53.426;10.300;2022-09-24T01:57:48;9.10;;;8.20;;
63110;SDS011;49201;53.426;10.300;2022-09-24T02:00:19;11.67;;;8.03;;
63110;SDS011;49201;53.426;10.300;2022-09-24T02:02:48;9.30;;;8.40;;
63110;SDS011;49201;53.426;10.300;2022-09-24T02:05:18;10.53;;;8.70;;
63110;SDS011;49201;53.426;10.300;2022-09-24T02:10:19;8.90;;;8.00;;
63110;SDS011;49201;53.426;10.300;2022-09-24T02:12:46;10.60;;;8.47;;
63110;SDS011;49201;53.426;10.300;2022-09-24T02:15:23;10.73;;;8.97;;
63110;SDS011;49201;53.426;10.300;2022-09-24T02:17:54;10.80;;;7.97;;
63110;SDS011;49201;53.426;10.300;2022-09-24T02:20:24;9.90;;;8.70;;
63110;SDS011;49201;53.426;10.300;2022-09-24T02:22:51;9.07;;;8.17;;
63110;SDS011;49201;53.426;10.300;2022-09-24T02:25:27;9.00;;;8.10;;
63110;SDS011;49201;53.426;10.300;2022-09-24T02:27:56;8.93;;;8.10;;
63110;SDS011;49201;53.426;10.300;2022-09-24T02:30:22;9.23;;;8.23;;
63110;SDS011;49201;53.426;10.300;2022-09-24T02:32:48;9.90;;;8.90;;
63110;SDS011;49201;53.426;10.300;2022-09-24T02:35:15;9.13;;;8.23;;
63110;SDS011;49201;53.426;10.300;2022-09-24T02:37:42;10.33;;;8.50;;
63110;SDS011;49201;53.426;10.300;2022-09-24T02:40:09;11.00;;;9.43;;
63110;SDS011;49201;53.426;10.300;2022-09-24T02:42:37;11.83;;;8.93;;
63110;SDS011;49201;53.426;10.300;2022-09-24T02:45:04;9.80;;;8.80;;
63110;SDS011;49201;53.426;10.300;2022-09-24T02:47:30;10.50;;;8.90;;
63110;SDS011;49201;53.426;10.300;2022-09-24T02:49:55;10.67;;;9.57;;
63110;SDS011;49201;53.426;10.300;2022-09-24T02:52:21;12.33;;;9.60;;
63110;SDS011;49201;53.426;10.300;2022-09-24T02:54:47;10.90;;;9.90;;
63110;SDS011;49201;53.426;10.300;2022-09-24T02:57:15;11.13;;;9.27;;
63110;SDS011;49201;53.426;10.300;2022-09-24T02:59:41;10.40;;;9.40;;
63110;SDS011;49201;53.426;10.300;2022-09-24T03:02:06;11.03;;;9.80;;
63110;SDS011;49201;53.426;10.300;2022-09-24T03:04:32;9.33;;;8.53;;
63110;SDS011;49201;53.426;10.300;2022-09-24T03:06:57;10.07;;;9.03;;
63110;SDS011;49201;53.426;10.300;2022-09-24T03:09:23;11.07;;;9.97;;
63110;SDS011;49201;53.426;10.300;2022-09-24T03:11:49;10.33;;;9.20;;
63110;SDS011;49201;53.426;10.300;2022-09-24T03:14:14;10.40;;;9.13;;
63110;SDS011;49201;53.426;10.300;2022-09-24T03:16:40;11.40;;;9.13;;
63110;SDS011;49201;53.426;10.300;2022-09-24T03:19:06;10.17;;;9.27;;
63110;SDS011;49201;53.426;10.300;2022-09-24T03:21:31;10.43;;;9.13;;
63110;SDS011;49201;53.426;10.300;2022-09-24T03:23:57;12.00;;;9.40;;
63110;SDS011;49201;53.426;10.300;2022-09-24T03:26:24;11.60;;;9.20;;
63110;SDS011;49201;53.426;10.300;2022-09-24T03:28:50;10.40;;;9.40;;
63110;SDS011;49201;53.426;10.300;2022-09-24T03:31:15;12.13;;;9.23;;
63110;SDS011;49201;53.426;10.300;2022-09-24T03:33:42;10.73;;;9.17;;
63110;SDS011;49201;53.426;10.300;2022-09-24T03:36:14;10.97;;;9.97;;
63110;SDS011;49201;53.426;10.300;2022-09-24T03:38:41;12.00;;;9.93;;
63110;SDS011;49201;53.426;10.300;2022-09-24T03:41:08;11.00;;;9.70;;
63110;SDS011;49201;53.426;10.300;2022-09-24T03:43:35;10.57;;;9.20;;
63110;SDS011;49201;53.426;10.300;2022-09-24T03:46:01;11.33;;;10.07;;
63110;SDS011;49201;53.426;10.300;2022-09-24T03:48:29;11.87;;;10.77;;
63110;SDS011;49201;53.426;10.300;2022-09-24T03:50:54;11.20;;;9.97;;
63110;SDS011;49201;53.426;10.300;2022-09-24T03:53:20;11.07;;;10.03;;
63110;SDS011;49201;53.426;10.300;2022-09-24T03:55:53;15.60;;;10.63;;
63110;SDS011;49201;53.426;10.300;2022-09-24T03:58:20;11.63;;;10.43;;
63110;SDS011;49201;53.426;10.300;2022-09-24T04:00:45;11.93;;;10.67;;
63110;SDS011;49201;53.426;10.300;2022-09-24T04:03:11;11.53;;;10.37;;
63110;SDS011;49201;53.426;10.300;2022-09-24T04:05:36;11.93;;;10.07;;
63110;SDS011;49201;53.426;10.300;2022-09-24T04:08:02;16.47;;;10.70;;
63110;SDS011;49201;53.426;10.300;2022-09-24T04:10:29;11.17;;;10.07;;
63110;SDS011;49201;53.426;10.300;2022-09-24T04:12:55;12.00;;;9.97;;
63110;SDS011;49201;53.426;10.300;2022-09-24T04:15:21;11.03;;;9.93;;
63110;SDS011;49201;53.426;10.300;2022-09-24T04:17:54;12.90;;;10.00;;
63110;SDS011;49201;53.426;10.300;2022-09-24T04:20:22;11.70;;;10.50;;
63110;SDS011;49201;53.426;10.300;2022-09-24T04:22:50;12.03;;;10.87;;
63110;SDS011;49201;53.426;10.300;2022-09-24T04:25:18;12.60;;;11.40;;
63110;SDS011;49201;53.426;10.300;2022-09-24T04:27:44;13.47;;;11.83;;
63110;SDS011;49201;53.426;10.300;2022-09-24T04:30:10;12.67;;;11.57;;
63110;SDS011;49201;53.426;10.300;2022-09-24T04:32:37;14.27;;;12.77;;
63110;SDS011;49201;53.426;10.300;2022-09-24T04:35:03;13.93;;;12.63;;
63110;SDS011;49201;53.426;10.300;2022-09-24T04:37:29;13.63;;;12.20;;
63110;SDS011;49201;53.426;10.300;2022-09-24T04:39:55;14.43;;;12.97;;
63110;SDS011;49201;53.426;10.300;2022-09-24T04:42:20;14.87;;;12.57;;
63110;SDS011;49201;53.426;10.300;2022-09-24T04:44:46;14.63;;;13.20;;
63110;SDS011;49201;53.426;10.300;2022-09-24T04:47:15;14.77;;;13.17;;
63110;SDS011;49201;53.426;10.300;2022-09-24T04:49:41;14.80;;;13.40;;
63110;SDS011;49201;53.426;10.300;2022-09-24T04:52:09;13.87;;;12.47;;
63110;SDS011;49201;53.426;10.300;2022-09-24T04:54:34;14.83;;;13.37;;
63110;SDS011;49201;53.426;10.300;2022-09-24T04:57:00;15.60;;;13.80;;
63110;SDS011;49201;53.426;10.300;2022-09-24T04:59:25;15.03;;;13.53;;
63110;SDS011;49201;53.426;10.300;2022-09-24T05:01:51;15.47;;;13.97;;
63110;SDS011;49201;53.426;10.300;2022-09-24T05:04:18;15.43;;;13.97;;
63110;SDS011;49201;53.426;10.300;2022-09-24T05:06:43;15.23;;;13.73;;
63110;SDS011;49201;53.426;10.300;2022-09-24T05:09:09;16.53;;;14.93;;
63110;SDS011;49201;53.426;10.300;2022-09-24T05:11:34;15.47;;;13.77;;
63110;SDS011;49201;53.426;10.300;2022-09-24T05:14:00;16.97;;;15.27;;
63110;SDS011;49201;53.426;10.300;2022-09-24T05:16:25;14.80;;;13.40;;
63110;SDS011;49201;53.426;10.300;2022-09-24T05:18:51;17.13;;;15.50;;
63110;SDS011;49201;53.426;10.300;2022-09-24T05:21:16;17.13;;;15.50;;
63110;SDS011;49201;53.426;10.300;2022-09-24T05:23:42;18.70;;;15.20;;
63110;SDS011;49201;53.426;10.300;2022-09-24T05:26:07;15.90;;;14.40;;
63110;SDS011;49201;53.426;10.300;2022-09-24T05:28:51;15.27;;;13.77;;
63110;SDS011;49201;53.426;10.300;2022-09-24T05:31:17;16.70;;;14.83;;
63110;SDS011;49201;53.426;10.300;2022-09-24T05:33:42;17.10;;;15.43;;
63110;SDS011;49201;53.426;10.300;2022-09-24T05:36:08;16.93;;;15.23;;
63110;SDS011;49201;53.426;10.300;2022-09-24T05:38:34;18.10;;;16.20;;
63110;SDS011;49201;53.426;10.300;2022-09-24T05:40:59;16.93;;;15.27;;
63110;SDS011;49201;53.426;10.300;2022-09-24T05:43:25;16.87;;;15.07;;
63110;SDS011;49201;53.426;10.300;2022-09-24T05:45:52;17.33;;;15.53;;
63110;SDS011;49201;53.426;10.300;2022-09-24T05:48:18;17.03;;;15.33;;
63110;SDS011;49201;53.426;10.300;2022-09-24T05:50:45;18.30;;;16.50;;
63110;SDS011;49201;53.426;10.300;2022-09-24T05:53:11;18.23;;;16.27;;
63110;SDS011;49201;53.426;10.300;2022-09-24T05:55:36;17.77;;;15.90;;
63110;SDS011;49201;53.426;10.300;2022-09-24T05:58:03;18.90;;;16.90;;
63110;SDS011;49201;53.426;10.300;2022-09-24T06:00:34;18.37;;;16.50;;
63110;SDS011;49201;53.426;10.300;2022-09-24T06:03:01;18.57;;;16.00;;
63110;SDS011;49201;53.426;10.300;2022-09-24T06:05:28;19.07;;;17.07;;
63110;SDS011;49201;53.426;10.300;2022-09-24T06:07:53;17.43;;;15.73;;
63110;SDS011;49201;53.426;10.300;2022-09-24T06:10:20;18.80;;;16.80;;
63110;SDS011;49201;53.426;10.300;2022-09-24T06:12:45;19.57;;;17.43;;
63110;SDS011;49201;53.426;10.300;2022-09-24T06:15:11;18.27;;;16.47;;
63110;SDS011;49201;53.426;10.300;2022-09-24T06:17:38;18.40;;;16.50;;
63110;SDS011;49201;53.426;10.300;2022-09-24T06:20:03;19.67;;;17.57;;
63110;SDS011;49201;53.426;10.300;2022-09-24T06:22:29;19.03;;;17.00;;
63110;SDS011;49201;53.426;10.300;2022-09-24T06:24:55;19.70;;;17.70;;
63110;SDS011;49201;53.426;10.300;2022-09-24T06:27:20;20.67;;;18.53;;
63110;SDS011;49201;53.426;10.300;2022-09-24T06:29:46;20.27;;;18.23;;
63110;SDS011;49201;53.426;10.300;2022-09-24T06:32:11;21.83;;;18.10;;
63110;SDS011;49201;53.426;10.300;2022-09-24T06:34:37;20.90;;;18.70;;
63110;SDS011;49201;53.426;10.300;2022-09-24T06:37:03;19.73;;;17.73;;
63110;SDS011;49201;53.426;10.300;2022-09-24T06:39:28;20.37;;;18.37;;
63110;SDS011;49201;53.426;10.300;2022-09-24T06:41:53;22.40;;;19.37;;
63110;SDS011;49201;53.426;10.300;2022-09-24T06:44:20;22.70;;;20.30;;
63110;SDS011;49201;53.426;10.300;2022-09-24T06:46:46;23.17;;;20.77;;
63110;SDS011;49201;53.426;10.300;2022-09-24T06:49:12;21.83;;;19.53;;
63110;SDS011;49201;53.426;10.300;2022-09-24T06:51:38;20.93;;;18.83;;
63110;SDS011;49201;53.426;10.300;2022-09-24T06:54:04;21.97;;;19.67;;
63110;SDS011;49201;53.426;10.300;2022-09-24T06:56:30;22.60;;;20.30;;
63110;SDS011;49201;53.426;10.300;2022-09-24T06:58:55;21.97;;;19.77;;
63110;SDS011;49201;53.426;10.300;2022-09-24T07:01:21;23.70;;;21.17;;
63110;SDS011;49201;53.426;10.300;2022-09-24T07:03:46;23.63;;;20.97;;
63110;SDS011;49201;53.426;10.300;2022-09-24T07:06:12;24.53;;;21.27;;
63110;SDS011;49201;53.426;10.300;2022-09-24T07:08:37;23.90;;;20.70;;
63110;SDS011;49201;53.426;10.300;2022-09-24T07:11:03;22.80;;;20.27;;
63110;SDS011;49201;53.426;10.300;2022-09-24T07:13:29;23.27;;;20.80;;
63110;SDS011;49201;53.426;10.300;2022-09-24T07:15:55;22.80;;;20.60;;
63110;SDS011;49201;53.426;10.300;2022-09-24T07:18:20;27.57;;;20.70;;
63110;SDS011;49201;53.426;10.300;2022-09-24T07:20:52;24.23;;;21.73;;
63110;SDS011;49201;53.426;10.300;2022-09-24T07:23:19;23.00;;;20.67;;
63110;SDS011;49201;53.426;10.300;2022-09-24T07:25:45;22.83;;;20.53;;
63110;SDS011;49201;53.426;10.300;2022-09-24T07:28:11;25.10;;;21.67;;
63110;SDS011;49201;53.426;10.300;2022-09-24T07:30:39;23.50;;;21.07;;
63110;SDS011;49201;53.426;10.300;2022-09-24T07:33:05;24.77;;;22.00;;
63110;SDS011;49201;53.426;10.300;2022-09-24T07:35:31;25.93;;;23.13;;
63110;SDS011;49201;53.426;10.300;2022-09-24T07:38:01;24.73;;;22.00;;
63110;SDS011;49201;53.426;10.300;2022-09-24T07:40:29;25.10;;;22.50;;
63110;SDS011;49201;53.426;10.300;2022-09-24T07:42:55;26.30;;;23.60;;
63110;SDS011;49201;53.426;10.300;2022-09-24T07:45:22;25.53;;;22.77;;
63110;SDS011;49201;53.426;10.300;2022-09-24T07:47:55;25.47;;;22.77;;
63110;SDS011;49201;53.426;10.300;2022-09-24T07:50:22;26.80;;;22.53;;
63110;SDS011;49201;53.426;10.300;2022-09-24T07:52:50;25.63;;;22.90;;
63110;SDS011;49201;53.426;10.300;2022-09-24T07:55:16;26.07;;;23.23;;
63110;SDS011;49201;53.426;10.300;2022-09-24T07:57:46;26.17;;;23.40;;
63110;SDS011;49201;53.426;10.300;2022-09-24T08:00:16;29.07;;;22.33;;
63110;SDS011;49201;53.426;10.300;2022-09-24T08:02:43;26.90;;;23.23;;
63110;SDS011;49201;53.426;10.300;2022-09-24T08:05:09;25.50;;;22.80;;
63110;SDS011;49201;53.426;10.300;2022-09-24T08:07:35;26.07;;;23.27;;
63110;SDS011;49201;53.426;10.300;2022-09-24T08:10:00;28.87;;;23.37;;
63110;SDS011;49201;53.426;10.300;2022-09-24T08:12:26;27.10;;;23.37;;
63110;SDS011;49201;53.426;10.300;2022-09-24T08:14:55;28.17;;;24.10;;
63110;SDS011;49201;53.426;10.300;2022-09-24T08:17:20;27.07;;;23.00;;
63110;SDS011;49201;53.426;10.300;2022-09-24T08:19:46;26.27;;;23.07;;
63110;SDS011;49201;53.426;10.300;2022-09-24T08:22:12;28.17;;;24.13;;
63110;SDS011;49201;53.426;10.300;2022-09-24T08:24:40;29.23;;;25.37;;
63110;SDS011;49201;53.426;10.300;2022-09-24T08:27:06;28.97;;;24.93;;
63110;SDS011;49201;53.426;10.300;2022-09-24T08:29:32;31.43;;;25.83;;
63110;SDS011;49201;53.426;10.300;2022-09-24T08:31:57;31.30;;;26.23;;
63110;SDS011;49201;53.426;10.300;2022-09-24T08:34:23;28.30;;;24.70;;
63110;SDS011;49201;53.426;10.300;2022-09-24T08:36:49;29.57;;;25.23;;
63110;SDS011;49201;53.426;10.300;2022-09-24T08:39:14;27.03;;;23.67;;
63110;SDS011;49201;53.426;10.300;2022-09-24T08:47:16;30.70;;;26.50;;
63110;SDS011;49201;53.426;10.300;2022-09-24T08:50:11;34.43;;;25.83;;
63110;SDS011;49201;53.426;10.300;2022-09-24T08:55:27;28.77;;;24.03;;
63110;SDS011;49201;53.426;10.300;2022-09-24T09:07:11;32.40;;;27.17;;
63110;SDS011;49201;53.426;10.300;2022-09-24T09:17:46;30.23;;;25.90;;
63110;SDS011;49201;53.426;10.300;2022-09-24T09:20:28;31.27;;;26.43;;
63110;SDS011;49201;53.426;10.300;2022-09-24T09:23:21;35.93;;;27.33;;
63110;SDS011;49201;53.426;10.300;2022-09-24T09:25:56;31.77;;;26.23;;
63110;SDS011;49201;53.426;10.300;2022-09-24T09:28:27;37.37;;;27.30;;
63110;SDS011;49201;53.426;10.300;2022-09-24T09:44:14;29.73;;;25.73;;
63110;SDS011;49201;53.426;10.300;2022-09-24T09:46:49;31.20;;;25.50;;
63110;SDS011;49201;53.426;10.300;2022-09-24T09:49:18;30.23;;;24.63;;
63110;SDS011;49201;53.426;10.300;2022-09-24T09:51:44;30.67;;;25.70;;
63110;SDS011;49201;53.426;10.300;2022-09-24T09:54:12;30.17;;;25.23;;
63110;SDS011;49201;53.426;10.300;2022-09-24T09:56:42;29.10;;;25.40;;
63110;SDS011;49201;53.426;10.300;2022-09-24T10:01:35;33.47;;;26.33;;
63110;SDS011;49201;53.426;10.300;2022-09-24T10:04:04;31.07;;;26.23;;
63110;SDS011;49201;53.426;10.300;2022-09-24T10:06:45;29.90;;;26.07;;
63110;SDS011;49201;53.426;10.300;2022-09-24T10:09:11;32.30;;;26.70;;
63110;SDS011;49201;53.426;10.300;2022-09-24T10:11:40;30.33;;;25.13;;
63110;SDS011;49201;53.426;10.300;2022-09-24T10:14:10;31.53;;;25.63;;
63110;SDS011;49201;53.426;10.300;2022-09-24T10:16:44;30.67;;;25.77;;
63110;SDS011;49201;53.426;10.300;2022-09-24T10:19:21;34.13;;;25.63;;
63110;SDS011;49201;53.426;10.300;2022-09-24T10:21:49;28.43;;;25.33;;
63110;SDS011;49201;53.426;10.300;2022-09-24T10:24:17;32.33;;;26.00;;
63110;SDS011;49201;53.426;10.300;2022-09-24T10:26:45;32.73;;;26.17;;
63110;SDS011;49201;53.426;10.300;2022-09-24T10:29:21;29.93;;;25.70;;
63110;SDS011;49201;53.426;10.300;2022-09-24T10:32:16;33.83;;;27.00;;
63110;SDS011;49201;53.426;10.300;2022-09-24T10:34:57;32.63;;;26.30;;
63110;SDS011;49201;53.426;10.300;2022-09-24T10:37:25;29.43;;;24.37;;
63110;SDS011;49201;53.426;10.300;2022-09-24T10:40:02;31.77;;;26.10;;
63110;SDS011;49201;53.426;10.300;2022-09-24T10:42:38;30.87;;;26.33;;
63110;SDS011;49201;53.426;10.300;2022-09-24T10:45:05;30.73;;;26.50;;
63110;SDS011;49201;53.426;10.300;2022-09-24T10:47:44;36.43;;;27.13;;
63110;SDS011;49201;53.426;10.300;2022-09-24T10:53:22;28.63;;;24.03;;
63110;SDS011;49201;53.426;10.300;2022-09-24T10:56:12;29.83;;;25.23;;
63110;SDS011;49201;53.426;10.300;2022-09-24T11:13:13;30.03;;;24.07;;
63110;SDS011;49201;53.426;10.300;2022-09-24T11:23:54;25.93;;;22.50;;
63110;SDS011;49201;53.426;10.300;2022-09-24T11:40:18;26.77;;;23.97;;
63110;SDS011;49201;53.426;10.300;2022-09-24T11:42:52;25.17;;;21.93;;
63110;SDS011;49201;53.426;10.300;2022-09-24T11:45:25;25.57;;;22.97;;
63110;SDS011;49201;53.426;10.300;2022-09-24T11:48:05;26.97;;;23.03;;
63110;SDS011;49201;53.426;10.300;2022-09-24T11:56:23;23.40;;;20.70;;
63110;SDS011;49201;53.426;10.300;2022-09-24T12:01:55;23.27;;;20.77;;
63110;SDS011;49201;53.426;10.300;2022-09-24T12:07:57;25.73;;;22.70;;
63110;SDS011;49201;53.426;10.300;2022-09-24T12:10:32;23.33;;;20.83;;
63110;SDS011;49201;53.426;10.300;2022-09-24T12:13:11;24.73;;;22.07;;
63110;SDS011;49201;53.426;10.300;2022-09-24T12:16:05;27.00;;;22.63;;
63110;SDS011;49201;53.426;10.300;2022-09-24T12:18:35;24.23;;;21.70;;
63110;SDS011;49201;53.426;10.300;2022-09-24T12:21:47;23.17;;;20.70;;
63110;SDS011;49201;53.426;10.300;2022-09-24T12:24:08;27.83;;;22.03;;
63110;SDS011;49201;53.426;10.300;2022-09-24T12:26:41;21.97;;;19.67;;
63110;SDS011;49201;53.426;10.300;2022-09-24T12:32:27;22.83;;;19.97;;
63110;SDS011;49201;53.426;10.300;2022-09-24T12:38:27;25.10;;;22.40;;
63110;SDS011;49201;53.426;10.300;2022-09-24T12:43:33;25.10;;;22.43;;
63110;SDS011;49201;53.426;10.300;2022-09-24T12:46:01;24.00;;;20.00;;
63110;SDS011;49201;53.426;10.300;2022-09-24T12:48:29;24.80;;;22.20;;
63110;SDS011;49201;53.426;10.300;2022-09-24T12:50:59;25.17;;;22.43;;
63110;SDS011;49201;53.426;10.300;2022-09-24T12:53:32;24.20;;;21.63;;
63110;SDS011;49201;53.426;10.300;2022-09-24T12:56:01;25.67;;;22.97;;
63110;SDS011;49201;53.426;10.300;2022-09-24T12:58:34;27.20;;;23.40;;
63110;SDS011;49201;53.426;10.300;2022-09-24T13:01:33;25.37;;;22.77;;
63110;SDS011;49201;53.426;10.300;2022-09-24T13:04:27;27.03;;;24.17;;
63110;SDS011;49201;53.426;10.300;2022-09-24T13:06:46;26.87;;;24.07;;
63110;SDS011;49201;53.426;10.300;2022-09-24T13:09:22;28.57;;;25.60;;
63110;SDS011;49201;53.426;10.300;2022-09-24T13:14:39;28.63;;;25.57;;
63110;SDS011;49201;53.426;10.300;2022-09-24T13:17:07;28.67;;;25.57;;
63110;SDS011;49201;53.426;10.300;2022-09-24T13:19:34;29.17;;;24.53;;
63110;SDS011;49201;53.426;10.300;2022-09-24T13:22:04;30.63;;;25.27;;
63110;SDS011;49201;53.426;10.300;2022-09-24T13:24:31;28.73;;;25.73;;
63110;SDS011;49201;53.426;10.300;2022-09-24T13:35:29;28.47;;;24.77;;
63110;SDS011;49201;53.426;10.300;2022-09-24T13:38:02;30.07;;;24.73;;
63110;SDS011;49201;53.426;10.300;2022-09-24T13:40:34;27.30;;;24.37;;
63110;SDS011;49201;53.426;10.300;2022-09-24T13:43:10;26.73;;;22.43;;
63110;SDS011;49201;53.426;10.300;2022-09-24T13:45:56;27.07;;;21.43;;
63110;SDS011;49201;53.426;10.300;2022-09-24T13:48:36;24.80;;;21.80;;
63110;SDS011;49201;53.426;10.300;2022-09-24T13:51:10;24.97;;;21.77;;
63110;SDS011;49201;53.426;10.300;2022-09-24T13:53:45;27.27;;;21.73;;
63110;SDS011;49201;53.426;10.300;2022-09-24T13:56:17;26.30;;;23.40;;
63110;SDS011;49201;53.426;10.300;2022-09-24T13:58:43;32.10;;;25.20;;
63110;SDS011;49201;53.426;10.300;2022-09-24T14:03:36;27.23;;;24.40;;
63110;SDS011;49201;53.426;10.300;2022-09-24T14:06:13;28.63;;;25.43;;
63110;SDS011;49201;53.426;10.300;2022-09-24T14:08:44;29.17;;;24.30;;
63110;SDS011;49201;53.426;10.300;2022-09-24T14:11:15;29.43;;;24.17;;
63110;SDS011;49201;53.426;10.300;2022-09-24T14:13:43;26.93;;;22.97;;
63110;SDS011;49201;53.426;10.300;2022-09-24T14:16:15;28.57;;;23.17;;
63110;SDS011;49201;53.426;10.300;2022-09-24T14:18:45;28.57;;;23.77;;
63110;SDS011;49201;53.426;10.300;2022-09-24T14:21:26;27.47;;;23.17;;
63110;SDS011;49201;53.426;10.300;2022-09-24T14:24:04;26.60;;;22.33;;
63110;SDS011;49201;53.426;10.300;2022-09-24T14:29:22;25.70;;;23.00;;
63110;SDS011;49201;53.426;10.300;2022-09-24T14:31:51;26.13;;;22.30;;
63110;SDS011;49201;53.426;10.300;2022-09-24T14:34:25;24.80;;;22.17;;
63110;SDS011;49201;53.426;10.300;2022-09-24T14:36:59;30.67;;;25.20;;
63110;SDS011;49201;53.426;10.300;2022-09-24T14:39:36;30.70;;;26.27;;
63110;SDS011;49201;53.426;10.300;2022-09-24T14:42:06;28.47;;;24.93;;
63110;SDS011;49201;53.426;10.300;2022-09-24T14:44:36;29.60;;;26.43;;
63110;SDS011;49201;53.426;10.300;2022-09-24T14:47:18;28.83;;;24.83;;
63110;SDS011;49201;53.426;10.300;2022-09-24T14:49:49;29.33;;;26.23;;
63110;SDS011;49201;53.426;10.300;2022-09-24T14:52:34;31.63;;;26.77;;
63110;SDS011;49201;53.426;10.300;2022-09-24T14:55:17;33.00;;;27.83;;
63110;SDS011;49201;53.426;10.300;2022-09-24T14:57:45;30.10;;;26.83;;
63110;SDS011;49201;53.426;10.300;2022-09-24T15:00:18;29.60;;;26.50;;
63110;SDS011;49201;53.426;10.300;2022-09-24T15:02:46;33.57;;;27.20;;
63110;SDS011;49201;53.426;10.300;2022-09-24T15:05:31;31.67;;;28.27;;
63110;SDS011;49201;53.426;10.300;2022-09-24T15:08:14;31.07;;;26.33;;
63110;SDS011;49201;53.426;10.300;2022-09-24T15:10:51;31.87;;;26.77;;
63110;SDS011;49201;53.426;10.300;2022-09-24T15:13:20;34.13;;;25.90;;
63110;SDS011;49201;53.426;10.300;2022-09-24T15:15:59;30.50;;;27.03;;
63110;SDS011;49201;53.426;10.300;2022-09-24T15:18:25;30.03;;;26.83;;
63110;SDS011;49201;53.426;10.300;2022-09-24T15:20:51;30.20;;;25.50;;
63110;SDS011;49201;53.426;10.300;2022-09-24T15:23:16;28.87;;;25.77;;
63110;SDS011;49201;53.426;10.300;2022-09-24T15:25:42;31.10;;;27.10;;
63110;SDS011;49201;53.426;10.300;2022-09-24T15:28:12;30.80;;;26.63;;
63110;SDS011;49201;53.426;10.300;2022-09-24T15:30:38;32.63;;;24.87;;
63110;SDS011;49201;53.426;10.300;2022-09-24T15:33:08;31.70;;;25.50;;
63110;SDS011;49201;53.426;10.300;2022-09-24T15:35:36;31.00;;;25.87;;
63110;SDS011;49201;53.426;10.300;2022-09-24T15:38:02;31.63;;;25.80;;
63110;SDS011;49201;53.426;10.300;2022-09-24T15:40:27;31.30;;;25.37;;
63110;SDS011;49201;53.426;10.300;2022-09-24T15:42:57;29.97;;;25.27;;
63110;SDS011;49201;53.426;10.300;2022-09-24T15:45:23;33.90;;;25.60;;
63110;SDS011;49201;53.426;10.300;2022-09-24T15:47:50;29.60;;;25.57;;
63110;SDS011;49201;53.426;10.300;2022-09-24T15:50:16;30.50;;;26.23;;
63110;SDS011;49201;53.426;10.300;2022-09-24T15:55:22;29.40;;;25.73;;
63110;SDS011;49201;53.426;10.300;2022-09-24T15:57:48;31.80;;;26.97;;
63110;SDS011;49201;53.426;10.300;2022-09-24T16:00:15;31.23;;;26.03;;
63110;SDS011;49201;53.426;10.300;2022-09-24T16:02:42;34.53;;;27.27;;
63110;SDS011;49201;53.426;10.300;2022-09-24T16:05:11;34.43;;;27.00;;
63110;SDS011;49201;53.426;10.300;2022-09-24T16:07:37;31.67;;;25.53;;
63110;SDS011;49201;53.426;10.300;2022-09-24T16:10:03;29.60;;;25.13;;
63110;SDS011;49201;53.426;10.300;2022-09-24T16:12:29;32.23;;;25.27;;
63110;SDS011;49201;53.426;10.300;2022-09-24T16:14:54;30.43;;;25.07;;
63110;SDS011;49201;53.426;10.300;2022-09-24T16:17:23;30.80;;;25.17;;
63110;SDS011;49201;53.426;10.300;2022-09-24T16:19:49;29.40;;;24.80;;
63110;SDS011;49201;53.426;10.300;2022-09-24T16:22:15;34.37;;;25.73;;
63110;SDS011;49201;53.426;10.300;2022-09-24T16:24:40;29.93;;;24.40;;
63110;SDS011;49201;53.426;10.300;2022-09-24T16:27:05;29.60;;;24.23;;
63110;SDS011;49201;53.426;10.300;2022-09-24T16:29:31;29.83;;;24.77;;
63110;SDS011;49201;53.426;10.300;2022-09-24T16:31:56;29.33;;;24.40;;
63110;SDS011;49201;53.426;10.300;2022-09-24T16:34:22;33.13;;;27.07;;
63110;SDS011;49201;53.426;10.300;2022-09-24T16:36:47;28.20;;;25.13;;
63110;SDS011;49201;53.426;10.300;2022-09-24T16:39:13;31.70;;;25.20;;
63110;SDS011;49201;53.426;10.300;2022-09-24T16:41:40;30.77;;;25.57;;
63110;SDS011;49201;53.426;10.300;2022-09-24T16:44:05;27.83;;;23.30;;
63110;SDS011;49201;53.426;10.300;2022-09-24T16:46:31;29.07;;;24.23;;
63110;SDS011;49201;53.426;10.300;2022-09-24T16:48:56;27.77;;;24.77;;
63110;SDS011;49201;53.426;10.300;2022-09-24T16:51:22;26.17;;;23.27;;